Time;durP1;ratioP1;P1;durP2;ratioP2;P2;SDS_P1;SDS_P2;PMS_P1;PMS_P2;Temp;Humidity;BMP_temperature;BMP_pressure;BME280_temperature;BME280_humidity;BME280_pressure;Samples;Min_cycle;Max_cycle;Signal;HPM_P1;HPM_P2
2021/11/22 00:01:05;;;;;;;7.33;1.70;;;4.70;99.90;;;;;;5047322;28;20089;-74
2021/11/22 00:03:33;;;;;;;5.03;1.55;;;4.60;99.90;;;;;;5061577;28;20398;-74
2021/11/22 00:06:01;;;;;;;5.22;1.55;;;4.60;99.90;;;;;;5057267;28;20040;-73
2021/11/22 00:08:31;;;;;;;7.10;1.90;;;4.60;99.90;;;;;;5066775;28;20048;-75
2021/11/22 00:10:57;;;;;;;6.20;1.70;;;4.50;99.90;;;;;;5037729;28;20570;-75
2021/11/22 00:13:23;;;;;;;6.03;1.53;;;4.50;99.90;;;;;;5061469;28;20041;-74
2021/11/22 00:15:51;;;;;;;7.15;1.70;;;4.50;99.90;;;;;;5051505;28;20671;-74
2021/11/22 00:18:17;;;;;;;7.50;1.53;;;4.50;99.90;;;;;;5049640;28;20044;-74
2021/11/22 00:20:43;;;;;;;6.87;1.93;;;4.40;99.90;;;;;;5056728;28;20051;-74
2021/11/22 00:23:09;;;;;;;6.20;1.83;;;4.40;99.90;;;;;;5077679;28;20407;-74
2021/11/22 00:25:35;;;;;;;7.17;2.47;;;4.30;99.90;;;;;;5048516;28;20077;-74
2021/11/22 00:28:01;;;;;;;7.07;2.20;;;4.30;99.90;;;;;;5067337;28;20040;-74
2021/11/22 00:30:27;;;;;;;6.47;2.13;;;4.20;99.90;;;;;;5054263;28;20044;-74
2021/11/22 00:32:56;;;;;;;8.83;2.17;;;4.30;99.90;;;;;;5075098;28;20129;-74
2021/11/22 00:35:30;;;;;;;7.07;2.17;;;4.20;99.90;;;;;;5060772;28;20039;-74
2021/11/22 00:37:56;;;;;;;6.90;1.80;;;4.20;99.90;;;;;;5048256;28;20093;-74
2021/11/22 00:40:22;;;;;;;9.27;2.08;;;4.10;99.90;;;;;;5055641;28;20055;-74
2021/11/22 00:42:49;;;;;;;6.10;2.00;;;4.20;99.90;;;;;;5076422;28;20050;-74
2021/11/22 00:45:16;;;;;;;6.93;2.00;;;4.10;99.90;;;;;;5064348;28;20097;-74
2021/11/22 00:47:42;;;;;;;11.27;2.87;;;4.10;99.90;;;;;;5052452;28;20044;-74
2021/11/22 00:50:08;;;;;;;10.07;2.70;;;4.10;99.90;;;;;;5054287;28;20534;-74
2021/11/22 00:52:34;;;;;;;7.03;2.10;;;4.00;99.90;;;;;;5056043;28;20367;-74
2021/11/22 00:55:00;;;;;;;6.60;2.37;;;4.00;99.90;;;;;;5055926;28;20044;-74
2021/11/22 00:57:26;;;;;;;7.87;2.07;;;3.90;99.90;;;;;;5065225;28;20085;-73
2021/11/22 00:59:52;;;;;;;6.50;2.20;;;3.80;99.90;;;;;;5033854;28;20041;-74
2021/11/22 01:02:18;;;;;;;7.30;1.87;;;3.70;99.90;;;;;;5072246;28;20075;-74
2021/11/22 01:04:44;;;;;;;4.97;2.00;;;3.70;99.90;;;;;;5039612;28;20382;-74
2021/11/22 01:07:10;;;;;;;5.30;1.60;;;3.70;99.90;;;;;;5051415;28;20043;-74
2021/11/22 01:09:36;;;;;;;5.33;1.70;;;3.60;99.90;;;;;;5059502;28;20072;-73
2021/11/22 01:12:05;;;;;;;5.17;2.00;;;3.50;99.90;;;;;;5045579;28;20049;-73
2021/11/22 01:14:31;;;;;;;6.03;2.07;;;3.40;99.90;;;;;;5067312;28;20067;-74
2021/11/22 01:16:56;;;;;;;5.83;1.77;;;3.40;99.90;;;;;;5074814;28;20040;-74
2021/11/22 01:19:22;;;;;;;8.53;2.90;;;3.30;99.90;;;;;;5057321;28;20062;-73
2021/11/22 01:21:48;;;;;;;9.17;3.70;;;3.30;99.90;;;;;;5049258;28;20032;-74
2021/11/22 01:24:14;;;;;;;17.00;6.20;;;3.20;99.90;;;;;;5058431;28;20126;-73
2021/11/22 01:26:40;;;;;;;20.70;7.47;;;3.20;99.90;;;;;;5072220;28;20055;-74
2021/11/22 01:29:06;;;;;;;15.73;6.33;;;3.20;99.90;;;;;;5061263;28;20086;-74
2021/11/22 01:31:31;;;;;;;19.73;6.33;;;3.20;99.90;;;;;;5050093;28;20078;-74
2021/11/22 01:33:57;;;;;;;20.10;6.20;;;3.20;99.90;;;;;;5058823;28;20068;-74
2021/11/22 01:36:24;;;;;;;12.77;5.17;;;3.20;99.90;;;;;;5048127;28;20048;-74
2021/11/22 01:38:50;;;;;;;12.67;4.07;;;3.30;99.90;;;;;;5071638;28;20078;-73
2021/11/22 01:41:16;;;;;;;7.30;2.80;;;3.40;99.90;;;;;;5062695;28;20119;-74
2021/11/22 01:43:42;;;;;;;8.97;2.83;;;3.30;99.90;;;;;;5052197;28;20119;-74
2021/11/22 01:46:15;;;;;;;7.03;1.97;;;3.30;99.90;;;;;;5070861;28;20059;-74
2021/11/22 01:48:41;;;;;;;8.63;2.40;;;3.30;99.90;;;;;;5073408;28;20047;-74
2021/11/22 01:51:08;;;;;;;6.63;2.20;;;3.30;99.90;;;;;;5045425;28;20092;-81
2021/11/22 01:53:33;;;;;;;5.13;2.00;;;3.30;99.90;;;;;;5061737;28;20124;-81
2021/11/22 01:56:03;;;;;;;9.27;2.80;;;3.20;99.90;;;;;;5057386;28;20048;-81
2021/11/22 01:58:29;;;;;;;7.63;2.37;;;3.20;99.90;;;;;;5081522;28;20040;-82
2021/11/22 02:00:56;;;;;;;9.27;1.80;;;3.10;99.90;;;;;;5043237;28;20044;-82
2021/11/22 02:03:22;;;;;;;5.30;1.77;;;3.10;99.90;;;;;;5068032;28;20103;-82
2021/11/22 02:05:51;;;;;;;5.33;1.80;;;3.00;99.90;;;;;;5063306;28;20048;-81
2021/11/22 02:08:20;;;;;;;3.40;1.30;;;2.90;99.90;;;;;;5058526;28;20605;-82
2021/11/22 02:10:46;;;;;;;6.07;1.37;;;2.90;99.90;;;;;;5075398;28;20181;-81
2021/11/22 02:13:13;;;;;;;6.20;1.63;;;2.80;99.90;;;;;;5074656;28;20085;-82
2021/11/22 02:15:39;;;;;;;7.90;1.73;;;2.80;99.90;;;;;;5081523;28;20044;-81
2021/11/22 02:18:05;;;;;;;4.20;1.63;;;2.70;99.90;;;;;;5044771;28;20555;-81
2021/11/22 02:20:32;;;;;;;4.47;1.43;;;2.60;99.90;;;;;;5078421;28;20131;-82
2021/11/22 02:23:16;;;;;;;5.30;1.40;;;2.70;99.90;;;;;;5069065;28;20518;-81
2021/11/22 02:25:44;;;;;;;8.57;2.30;;;2.70;99.90;;;;;;5064375;28;20056;-82
2021/11/22 02:28:12;;;;;;;7.70;2.20;;;2.60;99.90;;;;;;5060965;28;20068;-82
2021/11/22 02:30:44;;;;;;;6.03;2.20;;;2.60;99.90;;;;;;5071134;28;20048;-81
2021/11/22 02:33:14;;;;;;;5.03;1.90;;;2.60;99.90;;;;;;5077946;28;20561;-82
2021/11/22 02:35:49;;;;;;;4.80;1.90;;;2.50;99.90;;;;;;5088240;28;20081;-82
2021/11/22 02:38:23;;;;;;;4.70;1.67;;;2.40;99.90;;;;;;5083758;28;20040;-82
2021/11/22 02:40:53;;;;;;;4.97;1.97;;;2.40;99.90;;;;;;5065434;28;20041;-82
2021/11/22 02:43:20;;;;;;;8.10;2.13;;;2.30;99.90;;;;;;5056653;28;20503;-74
2021/11/22 02:45:46;;;;;;;3.47;1.57;;;2.20;99.90;;;;;;5071022;28;20045;-75
2021/11/22 02:48:13;;;;;;;5.03;1.70;;;2.20;99.90;;;;;;5036315;28;20049;-74
2021/11/22 02:50:38;;;;;;;6.83;1.90;;;2.20;99.90;;;;;;5080004;28;20054;-74
2021/11/22 02:53:04;;;;;;;5.27;1.87;;;2.20;99.90;;;;;;5065002;28;20127;-74
2021/11/22 02:55:30;;;;;;;4.37;1.63;;;2.20;99.90;;;;;;5059915;28;20494;-75
2021/11/22 02:57:56;;;;;;;6.43;2.70;;;2.20;99.90;;;;;;5078830;28;20036;-75
2021/11/22 03:00:26;;;;;;;5.40;1.90;;;2.10;99.90;;;;;;5078017;28;20054;-75
2021/11/22 03:02:55;;;;;;;5.10;1.97;;;2.10;99.90;;;;;;5069256;28;20045;-75
2021/11/22 03:05:22;;;;;;;5.63;1.87;;;2.00;99.90;;;;;;5069490;28;20127;-75
2021/11/22 03:07:55;;;;;;;10.20;3.23;;;2.00;99.90;;;;;;5070192;28;20092;-75
2021/11/22 03:10:25;;;;;;;6.57;1.97;;;2.00;99.90;;;;;;5069052;28;20057;-75
2021/11/22 03:12:52;;;;;;;5.93;2.65;;;2.00;99.90;;;;;;5053329;28;20558;-75
2021/11/22 03:15:19;;;;;;;6.93;1.90;;;2.00;99.90;;;;;;5054875;28;20040;-75
2021/11/22 03:17:45;;;;;;;4.53;1.70;;;2.00;99.90;;;;;;5053428;28;20056;-74
2021/11/22 03:20:13;;;;;;;6.57;2.17;;;1.90;99.90;;;;;;5055134;28;20243;-75
2021/11/22 03:22:40;;;;;;;5.97;2.50;;;1.90;99.90;;;;;;5062245;28;20075;-75
2021/11/22 03:25:09;;;;;;;5.53;1.57;;;1.90;99.90;;;;;;5074379;28;20123;-81
2021/11/22 03:27:35;;;;;;;5.00;1.60;;;1.80;99.90;;;;;;5075634;28;20087;-81
2021/11/22 03:30:03;;;;;;;6.80;1.90;;;1.90;99.90;;;;;;5089530;28;20117;-81
2021/11/22 03:32:29;;;;;;;4.57;1.80;;;1.80;99.90;;;;;;5055682;28;20044;-81
2021/11/22 03:34:56;;;;;;;3.87;1.70;;;1.80;99.90;;;;;;5036518;28;20045;-81
2021/11/22 03:37:25;;;;;;;5.57;1.85;;;1.70;99.90;;;;;;5045545;28;20083;-81
2021/11/22 03:39:52;;;;;;;5.67;2.00;;;1.50;99.90;;;;;;5079688;28;20052;-82
2021/11/22 03:42:21;;;;;;;4.27;1.87;;;1.50;99.90;;;;;;5054914;28;20524;-82
2021/11/22 03:44:47;;;;;;;6.60;2.50;;;1.50;99.90;;;;;;5085376;28;20103;-81
2021/11/22 03:47:13;;;;;;;7.03;1.87;;;1.40;99.90;;;;;;5067013;28;20045;-81
2021/11/22 03:49:39;;;;;;;7.67;2.77;;;1.40;99.90;;;;;;5086508;28;20044;-81
2021/11/22 03:52:05;;;;;;;6.77;2.50;;;1.40;99.90;;;;;;5088774;28;20414;-81
2021/11/22 03:54:31;;;;;;;5.43;2.33;;;1.40;99.90;;;;;;5052405;28;20101;-81
2021/11/22 03:56:57;;;;;;;4.90;1.80;;;1.50;99.90;;;;;;5052256;28;20487;-80
2021/11/22 03:59:23;;;;;;;7.37;2.70;;;1.50;99.90;;;;;;5067899;28;20048;-81
2021/11/22 04:01:49;;;;;;;5.30;1.93;;;1.50;99.90;;;;;;5066244;28;20048;-74
2021/11/22 04:04:15;;;;;;;2.90;1.60;;;1.40;99.90;;;;;;5072198;28;20105;-75
2021/11/22 04:06:41;;;;;;;4.37;1.77;;;1.50;99.90;;;;;;5067775;28;20045;-75
2021/11/22 04:09:07;;;;;;;5.13;2.23;;;1.50;99.90;;;;;;5051088;28;20047;-75
2021/11/22 04:11:35;;;;;;;7.47;2.37;;;1.40;99.90;;;;;;5051094;28;20758;-75
2021/11/22 04:14:02;;;;;;;3.33;1.40;;;1.40;99.90;;;;;;5058665;28;20147;-74
2021/11/22 04:16:31;;;;;;;6.33;1.90;;;1.50;99.90;;;;;;5087565;28;20499;-75
2021/11/22 04:18:57;;;;;;;4.57;1.80;;;1.40;99.90;;;;;;5055335;28;20051;-75
2021/11/22 04:21:24;;;;;;;5.03;1.90;;;1.40;99.90;;;;;;5070967;28;20406;-75
2021/11/22 04:23:51;;;;;;;8.57;1.80;;;1.40;99.90;;;;;;5068513;28;20052;-74
2021/11/22 04:26:18;;;;;;;6.37;1.93;;;1.40;99.90;;;;;;5050800;28;20511;-75
2021/11/22 04:28:45;;;;;;;8.40;2.90;;;1.40;99.90;;;;;;5072118;28;20036;-74
2021/11/22 04:31:11;;;;;;;5.87;2.37;;;1.30;99.90;;;;;;5071023;28;20063;-74
2021/11/22 04:33:38;;;;;;;3.83;1.50;;;1.30;99.90;;;;;;5054119;28;20075;-75
2021/11/22 04:36:08;;;;;;;4.23;1.20;;;1.30;99.90;;;;;;5066724;28;20056;-81
2021/11/22 04:38:35;;;;;;;3.80;1.60;;;1.20;99.90;;;;;;5050652;28;20048;-80
2021/11/22 04:41:01;;;;;;;2.43;1.30;;;1.20;99.90;;;;;;5067863;28;20063;-80
2021/11/22 04:43:27;;;;;;;4.73;1.67;;;1.20;99.90;;;;;;5066924;28;20048;-80
2021/11/22 04:45:52;;;;;;;2.70;1.30;;;1.30;99.90;;;;;;5067357;28;20048;-80
2021/11/22 04:48:18;;;;;;;3.67;1.33;;;1.20;99.90;;;;;;5059661;28;20262;-80
2021/11/22 04:50:44;;;;;;;4.77;1.40;;;1.10;99.90;;;;;;5087776;28;20047;-80
2021/11/22 04:53:10;;;;;;;4.47;1.70;;;1.20;99.90;;;;;;5068700;28;20392;-80
2021/11/22 04:55:36;;;;;;;4.50;1.60;;;1.10;99.90;;;;;;5052630;28;20041;-80
2021/11/22 04:58:07;;;;;;;7.00;1.50;;;1.10;99.90;;;;;;5033888;28;20127;-80
2021/11/22 05:00:35;;;;;;;4.40;1.93;;;1.10;99.90;;;;;;5069229;28;20554;-80
2021/11/22 05:03:01;;;;;;;4.60;2.10;;;1.10;99.90;;;;;;5067970;28;20055;-73
2021/11/22 05:05:27;;;;;;;7.30;2.10;;;1.10;99.90;;;;;;5065546;28;20149;-73
2021/11/22 05:07:52;;;;;;;6.17;1.87;;;1.10;99.90;;;;;;5051283;28;20502;-74
2021/11/22 05:10:21;;;;;;;6.80;1.93;;;1.10;99.90;;;;;;5049958;28;20149;-73
2021/11/22 05:12:47;;;;;;;4.73;1.73;;;1.10;99.90;;;;;;5067805;28;20059;-74
2021/11/22 05:15:13;;;;;;;4.50;1.70;;;1.00;99.90;;;;;;5064427;28;20041;-79
2021/11/22 05:17:41;;;;;;;4.23;1.80;;;1.10;99.90;;;;;;5067266;28;20044;-79
2021/11/22 05:20:08;;;;;;;6.63;1.60;;;1.00;99.90;;;;;;5050476;28;20124;-79
2021/11/22 05:22:33;;;;;;;10.93;3.30;;;1.00;99.90;;;;;;5066434;28;20064;-74
2021/11/22 05:25:01;;;;;;;6.43;1.87;;;1.00;99.90;;;;;;5050526;28;20041;-74
2021/11/22 05:27:29;;;;;;;4.93;1.87;;;0.90;99.90;;;;;;5050235;28;20509;-74
2021/11/22 05:29:55;;;;;;;6.87;2.50;;;0.90;99.90;;;;;;5069341;28;20084;-74
2021/11/22 05:32:22;;;;;;;4.33;1.50;;;0.90;99.90;;;;;;5033545;28;20080;-74
2021/11/22 05:34:53;;;;;;;5.57;1.97;;;1.00;99.90;;;;;;5067236;28;20128;-74
2021/11/22 05:37:20;;;;;;;5.47;2.13;;;0.90;99.90;;;;;;5066306;28;20063;-74
2021/11/22 05:39:46;;;;;;;4.50;1.80;;;0.90;99.90;;;;;;5050300;28;20551;-74
2021/11/22 05:42:16;;;;;;;5.33;2.07;;;0.90;99.90;;;;;;5050100;28;20128;-74
2021/11/22 05:44:42;;;;;;;7.70;2.40;;;0.90;99.90;;;;;;5029687;28;20044;-74
2021/11/22 05:47:10;;;;;;;6.07;2.30;;;0.90;99.90;;;;;;5067591;28;20053;-74
2021/11/22 05:49:36;;;;;;;6.57;2.20;;;0.90;99.90;;;;;;5049329;28;20048;-74
2021/11/22 05:52:04;;;;;;;7.60;2.70;;;0.90;99.90;;;;;;5050387;28;20655;-74
2021/11/22 05:54:32;;;;;;;4.77;2.27;;;1.00;99.90;;;;;;5066168;28;20713;-74
2021/11/22 05:57:00;;;;;;;5.00;2.20;;;0.90;99.90;;;;;;5050492;28;20124;-74
2021/11/22 05:59:27;;;;;;;8.20;2.93;;;1.00;99.90;;;;;;5053589;28;20414;-74
2021/11/22 06:01:53;;;;;;;7.00;2.33;;;1.00;99.90;;;;;;5056551;28;20426;-74
2021/11/22 06:04:19;;;;;;;4.87;2.13;;;1.10;99.90;;;;;;5064267;28;20044;-74
2021/11/22 06:06:45;;;;;;;5.40;2.40;;;1.00;99.90;;;;;;5058578;28;20094;-74
2021/11/22 06:09:11;;;;;;;8.80;2.23;;;1.00;99.90;;;;;;5053811;28;20048;-74
2021/11/22 06:11:36;;;;;;;5.50;1.97;;;1.00;99.90;;;;;;5057023;28;20384;-74
2021/11/22 06:14:03;;;;;;;6.97;2.43;;;1.00;99.90;;;;;;5062251;28;20078;-74
2021/11/22 06:16:29;;;;;;;6.87;2.70;;;0.90;99.90;;;;;;5053002;28;20123;-75
2021/11/22 06:18:55;;;;;;;7.93;2.60;;;0.90;99.90;;;;;;5077202;28;20094;-74
2021/11/22 06:21:24;;;;;;;5.03;2.37;;;0.90;99.90;;;;;;5070497;28;20514;-74
2021/11/22 06:23:50;;;;;;;6.33;2.73;;;0.90;99.90;;;;;;5076756;28;20067;-74
2021/11/22 06:26:15;;;;;;;5.20;2.30;;;0.90;99.90;;;;;;5062691;28;20131;-75
2021/11/22 06:28:41;;;;;;;7.80;2.50;;;0.90;99.90;;;;;;5054502;28;20037;-74
2021/11/22 06:31:08;;;;;;;5.13;2.70;;;0.90;99.90;;;;;;5058681;28;20063;-75
2021/11/22 06:33:33;;;;;;;8.87;2.63;;;0.90;99.90;;;;;;5051396;28;20566;-75
2021/11/22 06:35:59;;;;;;;7.93;3.30;;;0.80;99.90;;;;;;5050431;28;20126;-75
2021/11/22 06:38:26;;;;;;;6.10;2.33;;;0.70;99.90;;;;;;5053340;28;20057;-75
2021/11/22 06:40:53;;;;;;;7.33;2.17;;;0.70;99.90;;;;;;5043469;28;20504;-75
2021/11/22 06:43:19;;;;;;;6.33;1.97;;;0.70;99.90;;;;;;5075747;28;20375;-75
2021/11/22 06:45:46;;;;;;;5.93;2.10;;;0.70;99.90;;;;;;5059684;28;20063;-75
2021/11/22 06:48:11;;;;;;;7.03;2.53;;;0.70;99.90;;;;;;5056051;28;20072;-75
2021/11/22 06:50:37;;;;;;;7.33;2.13;;;0.70;99.90;;;;;;5078748;28;20083;-75
2021/11/22 06:53:03;;;;;;;4.80;2.10;;;0.70;99.90;;;;;;5073010;28;20036;-74
2021/11/22 06:55:30;;;;;;;10.90;2.77;;;0.70;99.90;;;;;;5059967;28;20491;-74
2021/11/22 06:57:56;;;;;;;5.90;2.47;;;0.70;99.90;;;;;;5042756;28;20068;-74
2021/11/22 07:00:24;;;;;;;8.23;2.57;;;0.70;99.90;;;;;;5060498;28;20127;-75
2021/11/22 07:02:54;;;;;;;5.53;2.20;;;0.70;99.90;;;;;;5073302;28;20047;-74
2021/11/22 07:05:22;;;;;;;6.18;2.65;;;0.70;99.90;;;;;;5083962;28;20082;-75
2021/11/22 07:07:49;;;;;;;6.97;2.63;;;0.70;99.90;;;;;;5074066;28;20414;-75
2021/11/22 07:10:15;;;;;;;7.00;2.33;;;0.70;99.90;;;;;;5065659;28;20052;-74
2021/11/22 07:12:41;;;;;;;5.40;2.50;;;0.70;99.90;;;;;;5081702;28;20057;-74
2021/11/22 07:15:09;;;;;;;9.03;3.07;;;0.70;99.90;;;;;;5067789;28;20048;-79
2021/11/22 07:17:35;;;;;;;7.27;3.03;;;0.60;99.90;;;;;;5082223;28;20047;-79
2021/11/22 07:20:00;;;;;;;8.20;2.87;;;0.60;99.90;;;;;;5089922;28;20105;-79
2021/11/22 07:22:27;;;;;;;9.30;3.57;;;0.70;99.90;;;;;;5038034;28;20511;-74
2021/11/22 07:24:52;;;;;;;8.30;4.03;;;0.60;99.90;;;;;;5068066;28;20109;-75
2021/11/22 07:27:24;;;;;;;9.03;4.07;;;0.60;99.90;;;;;;5064411;28;20184;-75
2021/11/22 07:29:50;;;;;;;7.67;2.63;;;0.60;99.90;;;;;;5062617;28;20059;-75
2021/11/22 07:32:16;;;;;;;6.97;2.43;;;0.60;99.90;;;;;;5053231;28;20045;-74
2021/11/22 07:34:42;;;;;;;6.43;2.90;;;0.50;99.90;;;;;;5035784;28;20110;-75
2021/11/22 07:37:09;;;;;;;8.00;3.60;;;0.50;99.90;;;;;;5054150;28;20044;-75
2021/11/22 07:39:34;;;;;;;6.57;3.00;;;0.60;99.90;;;;;;5039150;28;20039;-79
2021/11/22 07:42:01;;;;;;;6.47;2.60;;;0.60;99.90;;;;;;5058936;28;20047;-79
2021/11/22 07:44:26;;;;;;;9.83;5.40;;;0.70;99.90;;;;;;5077606;28;20094;-79
2021/11/22 07:46:54;;;;;;;7.10;2.80;;;0.70;99.90;;;;;;5064969;28;20418;-79
2021/11/22 07:49:20;;;;;;;9.47;3.97;;;0.80;99.90;;;;;;5060854;28;20102;-79
2021/11/22 07:51:46;;;;;;;8.33;4.17;;;0.80;99.90;;;;;;5039838;28;20078;-79
2021/11/22 07:54:12;;;;;;;9.97;5.53;;;0.80;99.90;;;;;;5072810;28;20471;-78
2021/11/22 07:56:38;;;;;;;10.97;5.83;;;0.80;99.90;;;;;;5062761;28;20040;-79
2021/11/22 07:59:04;;;;;;;14.97;8.50;;;0.80;99.90;;;;;;5058132;28;20403;-79
2021/11/22 08:01:30;;;;;;;16.03;10.40;;;0.80;99.90;;;;;;5060243;28;20182;-78
2021/11/22 08:03:56;;;;;;;14.23;8.57;;;0.80;99.90;;;;;;5064449;28;20047;-79
2021/11/22 08:06:24;;;;;;;12.20;7.37;;;0.70;99.90;;;;;;5056684;28;20032;-79
2021/11/22 08:08:51;;;;;;;15.27;11.47;;;0.70;99.90;;;;;;5062058;28;20110;-79
2021/11/22 08:11:30;;;;;;;12.47;8.17;;;0.70;99.90;;;;;;5051706;28;20059;-79
2021/11/22 08:13:56;;;;;;;14.10;9.97;;;0.80;99.90;;;;;;5046563;28;20047;-79
2021/11/22 08:16:22;;;;;;;11.10;7.77;;;0.80;99.90;;;;;;5071164;28;20036;-79
2021/11/22 08:18:49;;;;;;;10.57;7.77;;;0.90;99.90;;;;;;5035112;28;20453;-79
2021/11/22 08:21:15;;;;;;;9.60;7.57;;;1.00;99.90;;;;;;5072288;28;20167;-79
2021/11/22 08:23:41;;;;;;;9.70;7.57;;;1.10;99.90;;;;;;5055639;28;20254;-79
2021/11/22 08:26:07;;;;;;;11.67;8.97;;;1.10;99.90;;;;;;5084452;28;20054;-79
2021/11/22 08:28:33;;;;;;;9.87;8.57;;;1.20;99.90;;;;;;5068546;28;20048;-79
2021/11/22 08:31:00;;;;;;;11.23;7.77;;;1.30;99.90;;;;;;5073744;28;20036;-74
2021/11/22 08:33:26;;;;;;;10.17;6.87;;;1.30;99.90;;;;;;5078468;28;20097;-75
2021/11/22 08:35:52;;;;;;;10.70;6.37;;;1.30;99.90;;;;;;5075153;28;20131;-74
2021/11/22 08:38:19;;;;;;;8.07;5.90;;;1.40;99.90;;;;;;5068410;28;20043;-74
2021/11/22 08:40:46;;;;;;;11.47;5.80;;;1.40;99.90;;;;;;5067829;28;20061;-74
2021/11/22 08:43:16;;;;;;;8.93;5.73;;;1.40;99.90;;;;;;5069438;28;20039;-75
2021/11/22 08:45:47;;;;;;;10.00;5.43;;;1.50;99.90;;;;;;5076194;28;20530;-74
2021/11/22 08:48:15;;;;;;;8.30;5.73;;;1.60;99.90;;;;;;5059923;28;20040;-74
2021/11/22 08:50:41;;;;;;;8.57;5.43;;;1.70;99.90;;;;;;5066843;28;20548;-74
2021/11/22 08:53:07;;;;;;;7.47;5.57;;;1.80;99.90;;;;;;5047115;28;20048;-74
2021/11/22 08:55:34;;;;;;;8.60;6.10;;;1.90;99.90;;;;;;5066032;28;20482;-74
2021/11/22 08:58:00;;;;;;;10.03;6.00;;;2.00;99.90;;;;;;5071251;28;20059;-75
2021/11/22 09:00:33;;;;;;;9.23;5.40;;;2.10;99.90;;;;;;5068082;28;20345;-74
2021/11/22 09:03:02;;;;;;;8.30;5.10;;;2.20;99.90;;;;;;5067086;28;20257;-74
2021/11/22 09:05:28;;;;;;;9.63;4.80;;;2.30;99.90;;;;;;5040845;28;20040;-74
2021/11/22 09:07:54;;;;;;;8.00;4.10;;;2.30;99.90;;;;;;5050592;28;20044;-74
2021/11/22 09:10:21;;;;;;;8.30;4.07;;;2.40;99.90;;;;;;5058667;28;20147;-74
2021/11/22 09:12:47;;;;;;;7.77;4.50;;;2.40;99.90;;;;;;5082928;28;20106;-74
2021/11/22 09:15:13;;;;;;;6.90;4.30;;;2.50;99.90;;;;;;5076253;28;20048;-74
2021/11/22 09:17:39;;;;;;;7.20;4.20;;;2.60;99.90;;;;;;5062263;28;20517;-74
2021/11/22 09:20:08;;;;;;;8.63;4.80;;;2.70;99.90;;;;;;5078953;28;20036;-74
2021/11/22 09:22:35;;;;;;;11.63;4.27;;;2.80;99.90;;;;;;5082883;28;20196;-73
2021/11/22 09:25:03;;;;;;;7.57;4.20;;;2.90;99.90;;;;;;5066644;28;20052;-75
2021/11/22 09:27:29;;;;;;;6.03;3.60;;;2.90;99.90;;;;;;5065683;28;20055;-74
2021/11/22 09:29:58;;;;;;;6.00;3.60;;;3.00;99.90;;;;;;5033937;28;20624;-74
2021/11/22 09:32:26;;;;;;;8.47;3.87;;;3.10;99.90;;;;;;5049467;28;20356;-74
2021/11/22 09:34:52;;;;;;;10.30;5.83;;;3.10;99.90;;;;;;5046567;28;20049;-74
2021/11/22 09:37:18;;;;;;;10.10;5.77;;;3.10;99.90;;;;;;5053335;28;20036;-80
2021/11/22 09:39:43;;;;;;;8.17;4.90;;;3.20;99.90;;;;;;5052153;28;20477;-74
2021/11/22 09:42:10;;;;;;;9.43;5.23;;;3.30;99.90;;;;;;5063277;28;20044;-74
2021/11/22 09:44:36;;;;;;;8.90;5.63;;;3.40;99.90;;;;;;5061720;28;20063;-74
2021/11/22 09:47:02;;;;;;;10.23;5.43;;;3.50;99.90;;;;;;5062548;28;20044;-74
2021/11/22 09:49:28;;;;;;;8.57;4.87;;;3.60;99.90;;;;;;5076030;28;20075;-74
2021/11/22 09:51:55;;;;;;;8.27;4.97;;;3.70;99.90;;;;;;5046774;28;20130;-73
2021/11/22 09:54:21;;;;;;;9.20;5.47;;;3.80;99.90;;;;;;5029652;28;20040;-74
2021/11/22 09:56:49;;;;;;;9.47;4.53;;;4.00;99.90;;;;;;5034826;28;20051;-74
2021/11/22 09:59:17;;;;;;;6.87;4.00;;;4.00;99.90;;;;;;5047500;28;20503;-74
2021/11/22 10:01:43;;;;;;;6.37;3.77;;;4.00;99.90;;;;;;5056605;28;20446;-74
2021/11/22 10:04:14;;;;;;;6.10;3.73;;;4.20;99.90;;;;;;5045585;28;20048;-74
2021/11/22 10:07:04;;;;;;;31.63;28.80;;;4.20;99.90;;;;;;5047508;28;20083;-74
2021/11/22 10:09:40;;;;;;;39.85;36.15;;;4.30;99.90;;;;;;5046686;28;20243;-74
2021/11/22 10:12:17;;;;;;;39.97;36.33;;;4.30;99.90;;;;;;5080717;28;20056;-74
2021/11/22 10:14:58;;;;;;;28.00;25.07;;;4.40;99.90;;;;;;5071730;28;20637;-74
2021/11/22 10:17:32;;;;;;;9.03;6.57;;;4.50;99.90;;;;;;5040891;28;20044;-74
2021/11/22 10:20:07;;;;;;;5.93;3.00;;;4.50;99.90;;;;;;5048003;28;20040;-74
2021/11/22 10:22:43;;;;;;;7.30;3.00;;;4.60;99.90;;;;;;5048053;28;20040;-74
2021/11/22 10:25:35;;;;;;;7.70;2.90;;;4.70;99.90;;;;;;5064282;28;20087;-74
2021/11/22 10:28:04;;;;;;;6.30;2.63;;;4.80;99.90;;;;;;5081208;28;20070;-74
2021/11/22 10:30:34;;;;;;;6.80;3.20;;;4.90;99.90;;;;;;5060636;28;20040;-74
2021/11/22 10:33:02;;;;;;;5.90;3.00;;;5.20;99.90;;;;;;5070033;28;20267;-74
2021/11/22 10:35:31;;;;;;;5.68;3.20;;;5.20;99.90;;;;;;5065510;28;20522;-74
2021/11/22 10:38:01;;;;;;;4.80;2.90;;;5.20;99.90;;;;;;5048430;28;20123;-74
2021/11/22 10:40:32;;;;;;;5.30;2.55;;;5.30;99.90;;;;;;5072578;28;20044;-74
2021/11/22 10:43:03;;;;;;;4.55;2.22;;;5.40;99.90;;;;;;5085133;28;20173;-74
2021/11/22 10:45:38;;;;;;;;;;;5.50;99.90;;;;;;5076756;28;20055;-73
2021/11/22 10:48:21;;;;;;;5.55;2.15;;;5.70;99.90;;;;;;5072133;28;19927;-73
2021/11/22 10:50:53;;;;;;;9.23;2.88;;;5.80;99.90;;;;;;5065558;28;20135;-74
2021/11/22 10:53:47;;;;;;;3.33;0.70;;;6.00;99.90;;;;;;5067698;28;20297;-74
2021/11/22 10:56:16;;;;;;;7.47;1.27;;;6.10;99.90;;;;;;5053546;28;20061;-73
2021/11/22 10:58:55;;;;;;;5.05;0.82;;;6.20;99.90;;;;;;5053587;28;20047;-74
2021/11/22 11:01:35;;;;;;;3.55;1.50;;;6.30;99.90;;;;;;5071356;28;20043;-72
2021/11/22 11:04:07;;;;;;;3.58;0.88;;;6.40;99.90;;;;;;5057717;28;20131;-72
2021/11/22 11:06:57;;;;;;;3.88;1.08;;;6.40;99.90;;;;;;5069539;28;20060;-72
2021/11/22 11:09:39;;;;;;;2.97;0.70;;;6.40;99.90;;;;;;5076356;28;20522;-72
2021/11/22 11:12:19;;;;;;;5.55;1.98;;;6.40;99.90;;;;;;5072258;28;20052;-72
2021/11/22 11:14:50;;;;;;;9.50;1.15;;;6.50;99.90;;;;;;5071873;28;20115;-72
2021/11/22 11:17:32;;;;;;;6.15;0.95;;;6.50;99.90;;;;;;5084424;28;20055;-72
2021/11/22 11:20:05;;;;;;;4.45;0.90;;;6.70;99.90;;;;;;5056178;28;20047;-73
2021/11/22 11:22:31;;;;;;;3.63;0.90;;;6.80;99.90;;;;;;5039743;28;20057;-72
2021/11/22 11:24:57;;;;;;;4.53;1.40;;;6.90;99.90;;;;;;5076075;28;20189;-72
2021/11/22 11:27:24;;;;;;;3.53;1.00;;;6.90;99.90;;;;;;5061846;28;20086;-73
2021/11/22 11:29:51;;;;;;;8.23;2.20;;;6.90;99.90;;;;;;5071976;28;20040;-73
2021/11/22 11:32:17;;;;;;;5.05;1.05;;;6.90;99.90;;;;;;5062083;28;20258;-73
2021/11/22 11:34:48;;;;;;;6.47;0.95;;;6.90;99.90;;;;;;5076866;28;20044;-72
2021/11/22 11:37:44;;;;;;;2.70;0.73;;;7.00;99.90;;;;;;5082894;28;20040;-72
2021/11/22 11:40:41;;;;;;;3.55;0.80;;;7.10;99.90;;;;;;5059401;28;20067;-73
2021/11/22 11:43:48;;;;;;;8.70;2.55;;;7.20;99.90;;;;;;5059822;28;20059;-72
2021/11/22 11:46:36;;;;;;;2.40;0.75;;;7.30;99.90;;;;;;5049734;28;20127;-73
2021/11/22 11:49:11;;;;;;;6.35;0.90;;;7.30;99.90;;;;;;5072158;28;20518;-73
2021/11/22 11:51:47;;;;;;;4.43;0.80;;;7.40;99.90;;;;;;5068427;28;20077;-73
2021/11/22 11:54:16;;;;;;;3.15;1.00;;;7.40;99.90;;;;;;5067001;28;20040;-73
2021/11/22 11:56:50;;;;;;;4.95;1.08;;;7.40;99.90;;;;;;5066203;28;20113;-73
2021/11/22 11:59:26;;;;;;;6.10;1.48;;;7.40;99.90;;;;;;5087433;28;20077;-74
2021/11/22 12:02:11;;;;;;;3.55;1.08;;;7.40;99.90;;;;;;5072785;28;20048;-75
2021/11/22 12:05:04;;;;;;;6.22;1.13;;;7.50;99.90;;;;;;5063967;28;20041;-73
2021/11/22 12:07:43;;;;;;;6.53;1.20;;;7.50;99.90;;;;;;5067200;28;20494;-75
2021/11/22 12:10:27;;;;;;;3.10;0.80;;;7.60;99.90;;;;;;5067682;28;20507;-73
2021/11/22 12:13:04;;;;;;;3.10;0.70;;;7.60;99.90;;;;;;5063415;28;20040;-73
2021/11/22 12:15:52;;;;;;;4.65;0.93;;;7.60;99.90;;;;;;5058424;28;20044;-73
2021/11/22 12:18:29;;;;;;;4.22;0.90;;;7.60;99.90;;;;;;5066581;28;20051;-72
2021/11/22 12:21:23;;;;;;;4.07;0.95;;;7.60;99.90;;;;;;5052219;28;20190;-73
2021/11/22 12:23:51;;;;;;;2.67;0.50;;;7.70;99.90;;;;;;5060662;28;20051;-72
2021/11/22 12:26:27;;;;;;;3.85;0.75;;;7.70;99.90;;;;;;5052595;28;20055;-73
2021/11/22 12:28:54;;;;;;;4.85;0.80;;;7.70;99.90;;;;;;5079366;28;20497;-73
2021/11/22 12:31:25;;;;;;;4.03;0.77;;;7.70;99.90;;;;;;5084761;28;20044;-73
2021/11/22 12:34:02;;;;;;;4.07;0.63;;;7.70;99.90;;;;;;5055051;28;20040;-73
2021/11/22 12:36:30;;;;;;;3.95;0.70;;;7.80;99.90;;;;;;5079302;28;20692;-73
2021/11/22 12:39:23;;;;;;;3.60;0.70;;;7.70;99.90;;;;;;5061033;28;20507;-73
2021/11/22 12:41:52;;;;;;;3.60;0.80;;;7.80;99.90;;;;;;5071740;28;20059;-73
2021/11/22 12:44:22;;;;;;;6.20;1.50;;;7.80;99.90;;;;;;5072426;28;20071;-73
2021/11/22 12:46:54;;;;;;;4.25;0.88;;;7.90;99.90;;;;;;5051185;28;20109;-73
2021/11/22 12:49:33;;;;;;;3.33;1.05;;;7.90;99.90;;;;;;5067954;28;20127;-74
2021/11/22 12:52:26;;;;;;;4.00;1.15;;;7.90;99.90;;;;;;5054273;28;20048;-74
2021/11/22 12:55:13;;;;;;;2.65;1.10;;;8.00;99.90;;;;;;5069090;28;20046;-74
2021/11/22 12:57:42;;;;;;;3.83;1.00;;;8.00;99.90;;;;;;5066688;28;20044;-74
2021/11/22 13:00:15;;;;;;;4.15;0.90;;;8.00;99.90;;;;;;5049407;28;20048;-73
2021/11/22 13:02:43;;;;;;;3.50;1.05;;;8.00;99.90;;;;;;5078654;28;20083;-74
2021/11/22 13:05:09;;;;;;;5.38;1.60;;;8.00;99.90;;;;;;5071695;28;20044;-73